| time (UTC) | temp F | wind direction | speed knots | gust knots | rain 1hr in | rain 24hr in | rain mn in | humidity % | barometer mb |
| 20260505092855 | 57 | 65 | 3.5 | 10.4 | 0.00 | 0.00 | 0.00 | 49 | 917.6 |
| 20260505092353 | 57 | 55 | 1.7 | 6.1 | 0.00 | 0.00 | 0.00 | 49 | 917.6 |
| 20260505091906 | 57 | 41 | 0.9 | 4.3 | 0.00 | 0.00 | 0.00 | 50 | 917.6 |
| 20260505091351 | 56 | 36 | 1.7 | 6.1 | 0.00 | 0.00 | 0.00 | 50 | 917.5 |
| 20260505091116 | 57 | 8 | 2.6 | 6.1 | 0.00 | 0.00 | 0.00 | 50 | 917.5 |
| 20260505090348 | 59 | 359 | 0.9 | 4.3 | 0.00 | 0.00 | 0.00 | 48 | 917.6 |
| 20260505085849 | 59 | 56 | 0.9 | 7.8 | 0.00 | 0.00 | 0.00 | 46 | 917.5 |
| 20260505085350 | 59 | 71 | 2.6 | 7.8 | 0.00 | 0.00 | 0.00 | 46 | 917.4 |
| 20260505085112 | 59 | 60 | 2.6 | 7.0 | 0.00 | 0.00 | 0.00 | 46 | 917.2 |
| 20260505084349 | 59 | 71 | 3.5 | 8.7 | 0.00 | 0.00 | 0.00 | 46 | 917.1 |
| 20260505083849 | 59 | 73 | 4.3 | 8.7 | 0.00 | 0.00 | 0.00 | 46 | 917.1 |
| 20260505083347 | 60 | 66 | 5.2 | 12.2 | 0.00 | 0.00 | 0.00 | 46 | 917.2 |
| 20260505082847 | 60 | 62 | 5.2 | 12.2 | 0.00 | 0.00 | 0.00 | 46 | 917.2 |
| 20260505082347 | 60 | 91 | 5.2 | 10.4 | 0.00 | 0.00 | 0.00 | 46 | 917.2 |
| 20260505081846 | 60 | 81 | 5.2 | 10.4 | 0.00 | 0.00 | 0.00 | 46 | 917.2 |
| 20260505081347 | 60 | 67 | 5.2 | 10.4 | 0.00 | 0.00 | 0.00 | 46 | 917.2 |
| 20260505080847 | 60 | 69 | 5.2 | 9.6 | 0.00 | 0.00 | 0.00 | 47 | 917.1 |
| 20260505080347 | 60 | 73 | 7.0 | 10.4 | 0.00 | 0.00 | 0.00 | 47 | 917.1 |
| 20260505075851 | 60 | 76 | 7.8 | 11.3 | 0.00 | 0.00 | 0.00 | 47 | 917.1 |
| 20260505075351 | 60 | 64 | 7.0 | 11.3 | 0.00 | 0.00 | 0.00 | 47 | 917.0 |
| 20260505074851 | 59 | 70 | 7.0 | 10.4 | 0.00 | 0.00 | 0.00 | 47 | 917.0 |
| 20260505074351 | 60 | 70 | 7.0 | 9.6 | 0.00 | 0.00 | 0.00 | 47 | 917.0 |
| 20260505073843 | 59 | 78 | 5.2 | 8.7 | 0.00 | 0.00 | 0.00 | 48 | 917.0 |
| 20260505073348 | 59 | 67 | 4.3 | 8.7 | 0.00 | 0.00 | 0.00 | 48 | 917.0 |
| 20260505072847 | 59 | 63 | 3.5 | 7.8 | 0.00 | 0.00 | 0.00 | 48 | 917.0 |
| 20260505072347 | 60 | 73 | 2.6 | 7.8 | 0.00 | 0.00 | 0.00 | 47 | 917.0 |
| 20260505072107 | 60 | 75 | 3.5 | 7.0 | 0.00 | 0.00 | 0.00 | 47 | 917.0 |
| 20260505071348 | 60 | 63 | 4.3 | 7.8 | 0.00 | 0.00 | 0.00 | 47 | 916.9 |
| 20260505070847 | 60 | 58 | 3.5 | 7.8 | 0.00 | 0.00 | 0.00 | 47 | 916.9 |
| 20260505070348 | 60 | 89 | 1.7 | 7.0 | 0.00 | 0.00 | 0.00 | 46 | 916.9 |
| 20260505065841 | 61 | 91 | 0.9 | 8.7 | 0.00 | 0.00 | 0.00 | 46 | 916.9 |
| 20260505065602 | 61 | 92 | 1.7 | 8.7 | 0.00 | 0.00 | 0.00 | 45 | 916.6 |
| 20260505064825 | 61 | 106 | 3.5 | 7.8 | 0.00 | 0.00 | 0.00 | 45 | 916.7 |
| 20260505064319 | 62 | 63 | 3.5 | 8.7 | 0.00 | 0.00 | 0.00 | 45 | 916.6 |
| 20260505063813 | 62 | 93 | 5.2 | 11.3 | 0.00 | 0.00 | 0.00 | 44 | 916.5 |
| 20260505063303 | 62 | 101 | 7.0 | 11.3 | 0.00 | 0.00 | 0.00 | 44 | 916.5 |
| 20260505062758 | 62 | 114 | 7.0 | 11.3 | 0.00 | 0.00 | 0.00 | 43 | 916.5 |
| 20260505062251 | 62 | 81 | 7.8 | 11.3 | 0.00 | 0.00 | 0.00 | 44 | 916.5 |
| 20260505062006 | 62 | 73 | 8.7 | 11.3 | 0.00 | 0.00 | 0.00 | 44 | 916.5 |
| 20260505061237 | 62 | 78 | 8.7 | 11.3 | 0.00 | 0.00 | 0.00 | 45 | 916.5 |
| 20260505060729 | 61 | 81 | 7.8 | 11.3 | 0.00 | 0.00 | 0.00 | 45 | 916.5 |
| 20260505060219 | 61 | 71 | 7.0 | 11.3 | 0.00 | 0.00 | 0.00 | 45 | 916.5 |
| 20260505055713 | 62 | 75 | 7.8 | 11.3 | 0.00 | 0.00 | 0.00 | 45 | 916.4 |
| 20260505055208 | 62 | 73 | 8.7 | 11.3 | 0.00 | 0.00 | 0.00 | 44 | 916.5 |
| 20260505054657 | 62 | 74 | 7.8 | 11.3 | 0.00 | 0.00 | 0.00 | 44 | 916.5 |
| 20260505054151 | 62 | 73 | 7.8 | 11.3 | 0.00 | 0.00 | 0.00 | 44 | 916.4 |
| 20260505053645 | 62 | 73 | 7.8 | 10.4 | 0.00 | 0.00 | 0.00 | 44 | 916.4 |
| 20260505053135 | 62 | 75 | 8.7 | 10.4 | 0.00 | 0.00 | 0.00 | 43 | 916.4 |
| 20260505052630 | 63 | 82 | 8.7 | 10.4 | 0.00 | 0.00 | 0.00 | 43 | 916.4 |
| 20260505052123 | 63 | 79 | 7.8 | 11.3 | 0.00 | 0.00 | 0.00 | 43 | 916.5 |
| 20260505051832 | 62 | 78 | 7.8 | 11.3 | 0.00 | 0.00 | 0.00 | 43 | 916.4 |
| 20260505051120 | 63 | 79 | 7.8 | 10.4 | 0.00 | 0.00 | 0.00 | 43 | 916.4 |
| 20260505050601 | 63 | 82 | 7.8 | 11.3 | 0.00 | 0.00 | 0.00 | 43 | 916.4 |
| 20260505050104 | 63 | 80 | 7.8 | 12.2 | 0.00 | 0.00 | 0.00 | 43 | 916.4 |
| 20260505041445 | 59 | 79 | 3.5 | 7.8 | 0.00 | 0.00 | 0.00 | 49 | 916.0 |
| 20260505040939 | 61 | 58 | 2.6 | 7.0 | 0.00 | 0.00 | 0.00 | 46 | 916.0 |
| 20260505040433 | 62 | 36 | 1.7 | 7.0 | 0.00 | 0.00 | 0.00 | 43 | 915.9 |
| 20260505035923 | 63 | 30 | 3.5 | 8.7 | 0.00 | 0.00 | 0.00 | 42 | 915.9 |
| 20260505035417 | 64 | 27 | 5.2 | 8.7 | 0.00 | 0.00 | 0.00 | 40 | 915.8 |
| 20260505035354 | 65 | 24 | 6.1 | 8.7 | 0.00 | 0.00 | 0.00 | 39 | 915.8 |
| 20260505034623 | 65 | 27 | 6.1 | 8.7 | 0.00 | 0.00 | 0.00 | 39 | 915.7 |
| 20260505034339 | 65 | 25 | 7.0 | 12.2 | 0.00 | 0.00 | 0.00 | 39 | 915.7 |
| 20260505033349 | 65 | 28 | 7.8 | 12.2 | 0.00 | 0.00 | 0.00 | 39 | 915.6 |
| 20260505032839 | 66 | 21 | 7.8 | 11.3 | 0.00 | 0.00 | 0.00 | 39 | 915.6 |
| 20260505032334 | 65 | 35 | 7.8 | 11.3 | 0.00 | 0.00 | 0.00 | 39 | 915.5 |
| 20260505031827 | 65 | 27 | 7.0 | 10.4 | 0.00 | 0.00 | 0.00 | 39 | 915.5 |
| 20260505031318 | 65 | 29 | 6.1 | 10.4 | 0.00 | 0.00 | 0.00 | 40 | 915.4 |
| 20260505030811 | 64 | 40 | 5.2 | 8.7 | 0.00 | 0.00 | 0.00 | 41 | 915.5 |
| 20260505030305 | 64 | 40 | 5.2 | 7.8 | 0.00 | 0.00 | 0.00 | 41 | 915.4 |
| 20260505030026 | 65 | 43 | 5.2 | 7.8 | 0.00 | 0.00 | 0.00 | 41 | 915.5 |
| 20260505025249 | 65 | 39 | 5.2 | 10.4 | 0.00 | 0.00 | 0.00 | 40 | 915.5 |
| 20260505025014 | 66 | 50 | 6.1 | 10.4 | 0.00 | 0.00 | 0.00 | 38 | 915.5 |
| 20260505024233 | 67 | 39 | 6.1 | 10.4 | 0.00 | 0.00 | 0.00 | 37 | 915.5 |
| 20260505023726 | 67 | 44 | 5.2 | 9.6 | 0.00 | 0.00 | 0.00 | 38 | 915.4 |
| 20260505023222 | 67 | 42 | 4.3 | 8.7 | 0.00 | 0.00 | 0.00 | 39 | 915.4 |
| 20260505022711 | 67 | 50 | 5.2 | 9.6 | 0.00 | 0.00 | 0.00 | 38 | 915.3 |
| 20260505022206 | 68 | 45 | 5.2 | 9.6 | 0.00 | 0.00 | 0.00 | 37 | 915.3 |
| 20260505021917 | 68 | 37 | 5.2 | 10.4 | 0.00 | 0.00 | 0.00 | 37 | 915.3 |
| 20260505021627 | 69 | 35 | 6.1 | 13.0 | 0.00 | 0.00 | 0.00 | 37 | 915.3 |
| 20260505020643 | 69 | 54 | 6.1 | 11.3 | 0.00 | 0.00 | 0.00 | 35 | 915.3 |
| 20260505020402 | 69 | 36 | 5.2 | 9.6 | 0.00 | 0.00 | 0.00 | 36 | 915.2 |
| 20260505015627 | 69 | 27 | 6.1 | 12.2 | 0.00 | 0.00 | 0.00 | 37 | 915.2 |
| 20260505015121 | 70 | 35 | 7.0 | 12.2 | 0.00 | 0.00 | 0.00 | 35 | 915.3 |
| 20260505014615 | 70 | 64 | 7.8 | 13.9 | 0.00 | 0.00 | 0.00 | 34 | 915.2 |
| 20260505014105 | 70 | 37 | 7.8 | 13.9 | 0.00 | 0.00 | 0.00 | 34 | 915.3 |
| 20260505013559 | 71 | 48 | 7.8 | 13.0 | 0.00 | 0.00 | 0.00 | 34 | 915.3 |
| 20260505013053 | 71 | 39 | 7.8 | 12.2 | 0.00 | 0.00 | 0.00 | 33 | 915.2 |
| 20260505012543 | 71 | 65 | 9.6 | 14.8 | 0.00 | 0.00 | 0.00 | 35 | 915.2 |
| 20260505012037 | 71 | 45 | 10.4 | 14.8 | 0.00 | 0.00 | 0.00 | 34 | 915.2 |
| 20260505011531 | 71 | 52 | 7.0 | 14.8 | 0.00 | 0.00 | 0.00 | 35 | 915.2 |
| 20260505011240 | 71 | 45 | 5.2 | 11.3 | 0.00 | 0.00 | 0.00 | 35 | 915.3 |
| 20260505010736 | 71 | 47 | 7.0 | 13.0 | 0.00 | 0.00 | 0.00 | 36 | 915.3 |
| 20260505010009 | 71 | 25 | 7.8 | 13.0 | 0.00 | 0.00 | 0.00 | 37 | 915.4 |
| 20260505005459 | 71 | 64 | 8.7 | 13.0 | 0.00 | 0.00 | 0.00 | 34 | 915.4 |
| 20260505004953 | 71 | 60 | 7.0 | 13.0 | 0.00 | 0.00 | 0.00 | 35 | 915.4 |
| 20260505004447 | 71 | 36 | 6.1 | 12.2 | 0.00 | 0.00 | 0.00 | 37 | 915.5 |
| 20260505003942 | 71 | 44 | 7.0 | 12.2 | 0.00 | 0.00 | 0.00 | 36 | 915.4 |
| 20260505003431 | 71 | 59 | 7.8 | 13.0 | 0.00 | 0.00 | 0.00 | 35 | 915.4 |
| 20260505002925 | 72 | 51 | 7.0 | 13.9 | 0.00 | 0.00 | 0.00 | 35 | 915.5 |
| 20260505002415 | 72 | 63 | 7.0 | 13.9 | 0.00 | 0.00 | 0.00 | 35 | 915.5 |
| 20260505001909 | 72 | 54 | 7.8 | 13.9 | 0.00 | 0.00 | 0.00 | 36 | 915.6 |
| 20260505001404 | 73 | 31 | 6.1 | 13.9 | 0.00 | 0.00 | 0.00 | 36 | 915.4 |
| 20260505001116 | 73 | 50 | 5.2 | 13.9 | 0.00 | 0.00 | 0.00 | 36 | 915.5 |
| 20260505000618 | 73 | 58 | 7.0 | 13.9 | 0.00 | 0.00 | 0.00 | 36 | 915.5 |
| 20260504235841 | 73 | 29 | 7.0 | 12.2 | 0.00 | 0.00 | 0.00 | 35 | 915.5 |
| 20260504235331 | 73 | 59 | 7.0 | 14.8 | 0.00 | 0.00 | 0.00 | 34 | 915.5 |
| 20260504234825 | 73 | 39 | 5.2 | 14.8 | 0.00 | 0.00 | 0.00 | 35 | 915.5 |
| 20260504234538 | 73 | 45 | 5.2 | 10.4 | 0.00 | 0.00 | 0.00 | 36 | 915.5 |
| 20260504233809 | 73 | 74 | 6.1 | 11.3 | 0.00 | 0.00 | 0.00 | 34 | 915.5 |
| 20260504233316 | 73 | 33 | 5.2 | 11.3 | 0.00 | 0.00 | 0.00 | 36 | 915.7 |
| 20260504232757 | 73 | 12 | 6.1 | 12.2 | 0.00 | 0.00 | 0.00 | 36 | 915.6 |
| 20260504232512 | 73 | 27 | 7.0 | 12.2 | 0.00 | 0.00 | 0.00 | 33 | 915.5 |
| 20260504231742 | 74 | 46 | 6.1 | 12.2 | 0.00 | 0.00 | 0.00 | 36 | 915.6 |
| 20260504231236 | 73 | 9 | 4.3 | 12.2 | 0.00 | 0.00 | 0.00 | 37 | 915.5 |
| 20260504230738 | 73 | 83 | 4.3 | 12.2 | 0.00 | 0.00 | 0.00 | 37 | 915.6 |
| 20260504230224 | 73 | 54 | 5.2 | 13.0 | 0.00 | 0.00 | 0.00 | 35 | 915.7 |
| 20260504225942 | 74 | 359 | 6.1 | 13.0 | 0.00 | 0.00 | 0.00 | 35 | 915.7 |
| 20260504225203 | 74 | 32 | 6.1 | 13.0 | 0.00 | 0.00 | 0.00 | 37 | 915.7 |
| 20260504224658 | 73 | 9 | 3.5 | 13.0 | 0.00 | 0.00 | 0.00 | 36 | 915.7 |
| 20260504224152 | 73 | 64 | 6.1 | 16.5 | 0.00 | 0.00 | 0.00 | 36 | 915.7 |
| 20260504223642 | 73 | 43 | 7.0 | 16.5 | 0.00 | 0.00 | 0.00 | 37 | 915.7 |
| 20260504223135 | 73 | 48 | 3.5 | 13.0 | 0.00 | 0.00 | 0.00 | 36 | 915.7 |
| 20260504222630 | 73 | 70 | 4.3 | 11.3 | 0.00 | 0.00 | 0.00 | 37 | 915.8 |
| 20260504222342 | 73 | 21 | 5.2 | 14.8 | 0.00 | 0.00 | 0.00 | 37 | 915.9 |
| 20260504221613 | 73 | 27 | 3.5 | 14.8 | 0.00 | 0.00 | 0.00 | 38 | 915.8 |
| 20260504221108 | 73 | 73 | 5.2 | 13.0 | 0.00 | 0.00 | 0.00 | 36 | 915.8 |
| 20260504220821 | 73 | 36 | 5.2 | 13.0 | 0.00 | 0.00 | 0.00 | 35 | 915.8 |
| 20260504220100 | 73 | 348 | 3.5 | 9.6 | 0.00 | 0.00 | 0.00 | 37 | 915.9 |
| 20260504215545 | 73 | 299 | 3.5 | 11.3 | 0.00 | 0.00 | 0.00 | 37 | 915.7 |
| 20260504215515 | 73 | 359 | 3.5 | 8.7 | 0.00 | 0.00 | 0.00 | 37 | 916.0 |
| 20260504214758 | 73 | 359 | 5.2 | 12.2 | 0.00 | 0.00 | 0.00 | 38 | 915.8 |
| 20260504214029 | 73 | 54 | 6.1 | 12.2 | 0.00 | 0.00 | 0.00 | 37 | 915.9 |
| 20260504213527 | 73 | 37 | 6.1 | 11.3 | 0.00 | 0.00 | 0.00 | 37 | 916.0 |
| 20260504213026 | 73 | 50 | 7.0 | 11.3 | 0.00 | 0.00 | 0.00 | 38 | 916.0 |
| 20260504212527 | 73 | 41 | 7.0 | 11.3 | 0.00 | 0.00 | 0.00 | 37 | 916.1 |
| 20260504212025 | 73 | 66 | 4.3 | 11.3 | 0.00 | 0.00 | 0.00 | 37 | 916.1 |
| 20260504211525 | 73 | 332 | 4.3 | 10.4 | 0.00 | 0.00 | 0.00 | 38 | 916.0 |
| 20260504211025 | 73 | 347 | 5.2 | 10.4 | 0.00 | 0.00 | 0.00 | 36 | 916.2 |
| 20260504210522 | 73 | 52 | 6.1 | 12.2 | 0.00 | 0.00 | 0.00 | 37 | 916.1 |
| 20260504210023 | 73 | 25 | 7.0 | 12.2 | 0.00 | 0.00 | 0.00 | 35 | 916.1 |
| 20260504205523 | 73 | 347 | 6.1 | 10.4 | 0.00 | 0.00 | 0.00 | 35 | 916.1 |
| 20260504205025 | 73 | 13 | 6.1 | 12.2 | 0.00 | 0.00 | 0.00 | 38 | 916.1 |
| 20260504204526 | 72 | 313 | 6.1 | 12.2 | 0.00 | 0.00 | 0.00 | 35 | 916.0 |
| 20260504204249 | 73 | 4 | 7.0 | 11.3 | 0.00 | 0.00 | 0.00 | 35 | 916.2 |
| 20260504203525 | 72 | 9 | 7.0 | 14.8 | 0.00 | 0.00 | 0.00 | 37 | 916.2 |
| 20260504203023 | 72 | 343 | 7.8 | 14.8 | 0.00 | 0.00 | 0.00 | 39 | 916.0 |
| 20260504202519 | 72 | 23 | 7.8 | 13.0 | 0.00 | 0.00 | 0.00 | 38 | 916.2 |
| 20260504202019 | 72 | 359 | 7.0 | 12.2 | 0.00 | 0.00 | 0.00 | 37 | 916.0 |
| 20260504201519 | 72 | 36 | 7.0 | 13.9 | 0.00 | 0.00 | 0.00 | 40 | 916.1 |
| 20260504201019 | 72 | 16 | 6.1 | 13.9 | 0.00 | 0.00 | 0.00 | 40 | 916.1 |
| 20260504200520 | 72 | 36 | 7.0 | 13.9 | 0.00 | 0.00 | 0.00 | 42 | 916.2 |
| 20260504200018 | 72 | 54 | 7.0 | 13.0 | 0.00 | 0.00 | 0.00 | 39 | 916.1 |
| 20260504195519 | 72 | 354 | 5.2 | 12.2 | 0.00 | 0.00 | 0.00 | 42 | 916.1 |
| 20260504195018 | 72 | 12 | 5.2 | 13.0 | 0.00 | 0.00 | 0.00 | 40 | 916.0 |
| 20260504194518 | 72 | 4 | 5.2 | 13.0 | 0.00 | 0.00 | 0.00 | 41 | 916.1 |
| 20260504194019 | 71 | 344 | 4.3 | 9.6 | 0.00 | 0.00 | 0.00 | 45 | 916.1 |
| 20260504193738 | 71 | 23 | 4.3 | 10.4 | 0.00 | 0.00 | 0.00 | 40 | 916.1 |
| 20260504193019 | 71 | 41 | 5.2 | 11.3 | 0.00 | 0.00 | 0.00 | 44 | 916.1 |
| 20260504192519 | 70 | 345 | 6.1 | 11.3 | 0.00 | 0.00 | 0.00 | 42 | 916.1 |
| 20260504192019 | 70 | 51 | 6.1 | 11.3 | 0.00 | 0.00 | 0.00 | 42 | 916.2 |
| 20260504191519 | 70 | 347 | 6.1 | 11.3 | 0.00 | 0.00 | 0.00 | 46 | 916.1 |
| 20260504191019 | 70 | 4 | 6.1 | 11.3 | 0.00 | 0.00 | 0.00 | 44 | 916.3 |
| 20260504190750 | 70 | 354 | 7.0 | 11.3 | 0.00 | 0.00 | 0.00 | 46 | 916.3 |
| 20260504190018 | 70 | 13 | 6.1 | 11.3 | 0.00 | 0.00 | 0.00 | 43 | 916.3 |
| 20260504185519 | 70 | 359 | 5.2 | 10.4 | 0.00 | 0.00 | 0.00 | 43 | 916.3 |
| 20260504185015 | 70 | 9 | 5.2 | 10.4 | 0.00 | 0.00 | 0.00 | 45 | 916.4 |
| 20260504184736 | 69 | 329 | 5.2 | 11.3 | 0.00 | 0.00 | 0.00 | 47 | 916.4 |
| 20260504184014 | 69 | 4 | 5.2 | 11.3 | 0.00 | 0.00 | 0.00 | 47 | 916.4 |
| 20260504183515 | 69 | 8 | 5.2 | 9.6 | 0.00 | 0.00 | 0.00 | 48 | 916.4 |
| 20260504183014 | 69 | 348 | 4.3 | 9.6 | 0.00 | 0.00 | 0.00 | 47 | 916.4 |
| 20260504182514 | 69 | 326 | 3.5 | 9.6 | 0.00 | 0.00 | 0.00 | 47 | 916.3 |
| 20260504182015 | 69 | 347 | 3.5 | 8.7 | 0.00 | 0.00 | 0.00 | 50 | 916.4 |
| 20260504181515 | 69 | 50 | 3.5 | 9.6 | 0.00 | 0.00 | 0.00 | 48 | 916.6 |
| 20260504181014 | 69 | 11 | 2.6 | 10.4 | 0.00 | 0.00 | 0.00 | 47 | 916.6 |
| 20260504180514 | 69 | 25 | 1.7 | 10.4 | 0.00 | 0.00 | 0.00 | 49 | 916.6 |
| 20260504180015 | 68 | 359 | 2.6 | 7.0 | 0.00 | 0.00 | 0.00 | 48 | 916.5 |
| 20260504175514 | 68 | 13 | 1.7 | 7.0 | 0.00 | 0.00 | 0.00 | 49 | 916.5 |
| 20260504175014 | 67 | 302 | 0.9 | 5.2 | 0.00 | 0.00 | 0.00 | 48 | 916.5 |
| 20260504174514 | 67 | 303 | 0.9 | 5.2 | 0.00 | 0.00 | 0.00 | 48 | 916.5 |
| 20260504174014 | 67 | 172 | 0.0 | 1.7 | 0.00 | 0.00 | 0.00 | 49 | 916.5 |
| 20260504173515 | 66 | 172 | 0.0 | 4.3 | 0.00 | 0.00 | 0.00 | 49 | 916.6 |
| 20260504173011 | 66 | 174 | 0.9 | 4.3 | 0.00 | 0.00 | 0.00 | 51 | 916.5 |
| 20260504172510 | 66 | 174 | 0.9 | 3.5 | 0.00 | 0.00 | 0.00 | 51 | 916.5 |
| 20260504172011 | 65 | 175 | 0.9 | 3.5 | 0.00 | 0.00 | 0.00 | 54 | 916.5 |
| 20260504171510 | 65 | 174 | 0.9 | 4.3 | 0.00 | 0.00 | 0.00 | 53 | 916.5 |
| 20260504171011 | 65 | 175 | 0.9 | 4.3 | 0.00 | 0.00 | 0.00 | 52 | 916.4 |
| 20260504170732 | 65 | 159 | 0.9 | 4.3 | 0.00 | 0.00 | 0.00 | 52 | 916.5 |
| 20260504150932 | 57 | 295 | 1.7 | 3.5 | 0.00 | 0.00 | 0.00 | 64 | 916.5 |
| 20260504150649 | 58 | 296 | 0.9 | 3.5 | 0.00 | 0.00 | 0.00 | 64 | 916.5 |
| 20260504141022 | 56 | 11 | 0.0 | 0.0 | 0.00 | 0.00 | 0.00 | 66 | 916.4 |
| 20260504140258 | 55 | 12 | 0.0 | 0.0 | 0.00 | 0.00 | 0.00 | 67 | 916.4 |
| 20260504130636 | 49 | 36 | 0.0 | 4.3 | 0.00 | 0.00 | 0.00 | 67 | 915.9 |
| 20260504130130 | 49 | 25 | 0.0 | 0.0 | 0.00 | 0.00 | 0.00 | 67 | 915.8 |
| 20260504110341 | 49 | 54 | 3.5 | 6.1 | 0.00 | 0.00 | 0.00 | 67 | 915.7 |
| 20260504100217 | 52 | 56 | 0.0 | 0.0 | 0.00 | 0.00 | 0.00 | 61 | 915.8 |